Time;durP1;ratioP1;P1;durP2;ratioP2;P2;SDS_P1;SDS_P2;PMS_P1;PMS_P2;Temp;Humidity;BMP_temperature;BMP_pressure;BME280_temperature;BME280_humidity;BME280_pressure;Samples;Min_cycle;Max_cycle;Signal;HPM_P1;HPM_P2
2022/09/28 00:01:50;;;;;;;;;;;;;;;20.18;52.28;99239.16;5021672;28;4281;-72
2022/09/28 00:04:17;;;;;;;;;;;;;;;20.17;52.47;99231.97;5026427;28;4240;-71
2022/09/28 00:06:43;;;;;;;;;;;;;;;20.16;52.35;99248.47;5027265;28;4242;-73
2022/09/28 00:09:09;;;;;;;;;;;;;;;20.15;52.32;99237.66;5026955;28;4297;-70
2022/09/28 00:11:36;;;;;;;;;;;;;;;20.14;52.30;99247.72;5034452;28;4120;-72
2022/09/28 00:14:02;;;;;;;;;;;;;;;20.14;52.45;99244.84;5036231;28;4235;-72
2022/09/28 00:16:30;;;;;;;;;;;;;;;20.14;52.48;99233.34;5031801;28;4227;-72
2022/09/28 00:18:56;;;;;;;;;;;;;;;20.14;52.67;99227.59;5035913;28;5420;-72
2022/09/28 00:21:25;;;;;;;;;;;;;;;20.15;52.63;99237.66;5025555;28;5493;-72
2022/09/28 00:26:44;;;;;;;;;;;;;;;20.13;52.69;99231.88;5031731;28;4118;-73
2022/09/28 00:29:17;;;;;;;;;;;;;;;20.13;52.61;99231.88;5029067;28;5650;-73
2022/09/28 00:31:44;;;;;;;;;;;;;;;20.11;52.58;99241.16;5015826;28;4094;-74
2022/09/28 00:34:10;;;;;;;;;;;;;;;20.11;52.55;99228.94;5034202;28;4191;-73
2022/09/28 00:36:36;;;;;;;;;;;;;;;20.12;52.42;99236.16;5026582;28;4441;-73
2022/09/28 00:39:06;;;;;;;;;;;;;;;20.08;52.45;99231.78;5030346;28;4185;-73
2022/09/28 00:41:33;;;;;;;;;;;;;;;20.07;52.37;99235.34;5021306;28;6307;-73
2022/09/28 00:44:18;;;;;;;;;;;;;;;20.07;52.56;99221.72;5025022;28;5502;-72
2022/09/28 00:46:44;;;;;;;;;;;;;;;20.08;52.32;99220.28;5029242;28;5167;-72
2022/09/28 00:49:11;;;;;;;;;;;;;;;20.06;52.62;99228.13;5028704;28;5336;-72
2022/09/28 00:51:38;;;;;;;;;;;;;;;20.05;52.30;99221.66;5018684;28;4241;-72
2022/09/28 00:54:04;;;;;;;;;;;;;;;20.04;52.50;99225.97;5021002;28;4193;-72
2022/09/28 00:56:31;;;;;;;;;;;;;;;20.00;52.68;99220.13;5028778;28;4193;-72
2022/09/28 00:58:58;;;;;;;;;;;;;;;20.02;52.34;99219.41;5030061;28;4215;-72
2022/09/28 01:01:25;;;;;;;;;;;;;;;20.01;52.40;99221.56;5028747;28;4356;-72
2022/09/28 01:03:53;;;;;;;;;;;;;;;20.00;52.50;99220.13;5029344;28;4372;-73
2022/09/28 01:06:20;;;;;;;;;;;;;;;19.99;52.38;99224.38;5020501;28;4185;-72
2022/09/28 01:08:49;;;;;;;;;;;;;;;19.99;52.33;99218.66;5017049;28;4174;-72
2022/09/28 01:11:16;;;;;;;;;;;;;;;20.00;52.63;99220.13;5008039;28;4343;-72
2022/09/28 01:13:43;;;;;;;;;;;;;;;20.00;52.41;99219.41;5024792;28;4104;-72
2022/09/28 01:16:23;;;;;;;;;;;;;;;19.97;52.44;99224.34;5007674;28;4287;-70
2022/09/28 01:19:12;;;;;;;;;;;;;;;19.97;52.24;99207.09;5004437;28;4222;-72
2022/09/28 01:21:44;;;;;;;;;;;;;;;19.96;52.37;99202.78;5027045;28;4202;-74
2022/09/28 01:24:13;;;;;;;;;;;;;;;19.97;52.95;99209.97;5028610;28;4228;-74
2022/09/28 01:26:46;;;;;;;;;;;;;;;19.97;53.18;99201.38;5021706;28;4127;-74
2022/09/28 01:29:32;;;;;;;;;;;;;;;19.98;52.79;99211.44;5015999;28;5229;-74
2022/09/28 01:32:09;;;;;;;;;;;;;;;19.95;53.08;99200.59;5028722;28;4131;-75
2022/09/28 01:34:36;;;;;;;;;;;;;;;19.95;53.08;99201.34;5008153;28;4146;-74
2022/09/28 01:37:03;;;;;;;;;;;;;;;19.96;53.01;99207.81;5029969;28;4086;-74
2022/09/28 01:39:31;;;;;;;;;;;;;;;19.95;52.99;99204.22;5016822;28;4224;-72
2022/09/28 01:41:59;;;;;;;;;;;;;;;19.92;52.72;99199.81;5025953;28;4140;-73
2022/09/28 01:44:26;;;;;;;;;;;;;;;19.94;52.61;99205.63;5017689;28;4598;-73
2022/09/28 01:46:52;;;;;;;;;;;;;;;19.94;52.55;99204.88;5025860;28;4673;-72
2022/09/28 01:49:20;;;;;;;;;;;;;;;19.94;52.75;99205.63;5027210;28;4221;-73
2022/09/28 01:51:51;;;;;;;;;;;;;;;19.92;52.68;99202.69;5029164;28;4270;-72
2022/09/28 01:54:19;;;;;;;;;;;;;;;19.92;52.71;99201.97;5029078;28;5351;-73
2022/09/28 01:56:49;;;;;;;;;;;;;;;19.91;52.39;99194.78;5026496;28;5495;-73
2022/09/28 01:59:19;;;;;;;;;;;;;;;19.90;52.42;99194.03;5016252;28;4404;-73
2022/09/28 02:01:45;;;;;;;;;;;;;;;19.91;52.36;99191.91;5006402;28;4274;-73
2022/09/28 02:04:15;;;;;;;;;;;;;;;19.89;52.34;99198.31;5022785;28;4178;-71
2022/09/28 02:06:47;;;;;;;;;;;;;;;19.89;52.40;99192.59;5011689;28;4047;-73
2022/09/28 02:09:18;;;;;;;;;;;;;;;19.87;52.39;99193.25;5007648;28;4237;-74
2022/09/28 02:11:46;;;;;;;;;;;;;;;19.87;52.33;99189.66;5003882;28;5835;-73
2022/09/28 02:14:13;;;;;;;;;;;;;;;19.86;52.29;99194.69;5014359;28;4180;-73
2022/09/28 02:16:41;;;;;;;;;;;;;;;19.87;52.40;99192.53;5032702;28;4165;-74
2022/09/28 02:19:09;;;;;;;;;;;;;;;19.85;53.05;99189.63;5028467;28;4209;-72
2022/09/28 02:21:38;;;;;;;;;;;;;;;19.85;52.73;99186.75;5028545;28;4102;-72
2022/09/28 02:24:22;;;;;;;;;;;;;;;19.84;52.64;99191.03;5016621;28;4221;-73
2022/09/28 02:26:49;;;;;;;;;;;;;;;19.84;52.70;99191.03;5007094;28;4179;-73
2022/09/28 02:29:15;;;;;;;;;;;;;;;19.82;53.24;99185.25;5015513;28;4182;-72
2022/09/28 02:31:42;;;;;;;;;;;;;;;19.82;52.59;99180.22;5030059;28;4205;-73
2022/09/28 02:34:08;;;;;;;;;;;;;;;19.83;52.62;99180.97;5029712;28;4370;-73
2022/09/28 02:36:35;;;;;;;;;;;;;;;19.82;52.74;99188.13;5003067;28;5601;-73
2022/09/28 02:39:01;;;;;;;;;;;;;;;19.81;53.13;99180.91;5011165;28;4239;-73
2022/09/28 02:41:31;;;;;;;;;;;;;;;19.81;53.44;99178.03;5024392;28;4208;-73
2022/09/28 02:44:02;;;;;;;;;;;;;;;19.77;53.60;99181.56;5007029;28;4236;-72
2022/09/28 02:46:29;;;;;;;;;;;;;;;19.79;53.63;99178.75;5029549;28;5200;-73
2022/09/28 02:49:23;;;;;;;;;;;;;;;19.81;53.37;99180.91;5023337;28;5346;-74
2022/09/28 02:51:58;;;;;;;;;;;;;;;19.81;52.66;99178.03;5028308;28;4179;-73
2022/09/28 02:54:53;;;;;;;;;;;;;;;19.82;52.77;99170.91;5017038;28;4097;-73
2022/09/28 02:57:24;;;;;;;;;;;;;;;19.84;52.91;99163.03;4960918;28;5285;-72
2022/09/28 02:59:51;;;;;;;;;;;;;;;19.85;52.74;99169.50;5037469;28;5350;-72
2022/09/28 03:02:28;;;;;;;;;;;;;;;19.86;52.53;99165.25;5053320;28;4255;-72
2022/09/28 03:05:00;;;;;;;;;;;;;;;19.86;52.45;99165.25;5022108;28;5361;-71
2022/09/28 03:07:31;;;;;;;;;;;;;;;19.85;52.53;99161.63;5021973;28;4221;-71
2022/09/28 03:10:12;;;;;;;;;;;;;;;19.84;52.23;99157.31;5013450;28;6541;-72
2022/09/28 03:12:39;;;;;;;;;;;;;;;19.84;52.33;99156.56;5024225;28;5281;-72
2022/09/28 03:15:10;;;;;;;;;;;;;;;19.85;52.53;99158.03;5057425;28;4083;-72
2022/09/28 03:17:36;;;;;;;;;;;;;;;19.86;52.57;99153.75;5053398;28;4482;-71
2022/09/28 03:20:03;;;;;;;;;;;;;;;19.88;52.82;99156.66;5048649;28;4094;-72
2022/09/28 03:22:29;;;;;;;;;;;;;;;19.88;52.64;99145.16;5043462;28;4212;-72
2022/09/28 03:24:56;;;;;;;;;;;;;;;19.89;52.78;99143.75;5047595;28;4097;-72
2022/09/28 03:27:22;;;;;;;;;;;;;;;19.89;52.67;99135.13;5044317;28;5389;-72
2022/09/28 03:29:49;;;;;;;;;;;;;;;19.90;52.43;99130.13;5050775;28;4200;-72
2022/09/28 03:32:15;;;;;;;;;;;;;;;19.90;52.58;99142.31;5039353;28;4229;-71
2022/09/28 03:34:42;;;;;;;;;;;;;;;19.88;52.44;99133.66;5046917;28;5368;-72
2022/09/28 03:37:11;;;;;;;;;;;;;;;19.88;52.47;99134.41;5045464;28;5171;-72
2022/09/28 03:39:38;;;;;;;;;;;;;;;19.89;52.74;99132.25;5049385;28;4286;-71
2022/09/28 03:42:04;;;;;;;;;;;;;;;19.88;52.68;99134.41;5043106;28;5591;-71
2022/09/28 03:44:33;;;;;;;;;;;;;;;19.88;52.49;99142.28;5053316;28;4253;-71
2022/09/28 03:47:00;;;;;;;;;;;;;;;19.87;52.39;99137.97;5046928;28;4279;-72
2022/09/28 03:49:26;;;;;;;;;;;;;;;19.85;52.44;99135.78;5049504;28;4237;-72
2022/09/28 03:51:52;;;;;;;;;;;;;;;19.86;52.19;99136.53;5045452;28;4305;-72
2022/09/28 03:54:19;;;;;;;;;;;;;;;19.84;52.19;99131.44;5032663;28;4318;-72
2022/09/28 03:56:45;;;;;;;;;;;;;;;19.85;52.08;99130.03;5039969;28;4068;-72
2022/09/28 03:59:11;;;;;;;;;;;;;;;19.85;52.08;99135.03;5047492;28;4906;-74
2022/09/28 04:01:38;;;;;;;;;;;;;;;19.87;51.97;99135.09;5043578;28;5327;-74
2022/09/28 04:04:04;;;;;;;;;;;;;;;19.86;51.60;99130.78;5035489;28;4063;-74
2022/09/28 04:06:31;;;;;;;;;;;;;;;19.86;51.33;99127.91;5038829;28;4028;-71
2022/09/28 04:08:57;;;;;;;;;;;;;;;19.85;51.28;99130.03;5035183;28;5328;-71
2022/09/28 04:11:24;;;;;;;;;;;;;;;19.85;51.38;99129.31;5040994;28;4243;-72
2022/09/28 04:13:50;;;;;;;;;;;;;;;19.85;51.36;99118.53;5052922;28;5399;-73
2022/09/28 04:16:17;;;;;;;;;;;;;;;19.85;51.39;99120.69;5044461;28;5805;-73
2022/09/28 04:18:54;;;;;;;;;;;;;;;19.85;51.53;99117.81;5041937;28;5329;-74
2022/09/28 04:21:44;;;;;;;;;;;;;;;19.82;51.60;99111.31;5039673;28;4210;-74
2022/09/28 04:24:13;;;;;;;;;;;;;;;19.81;51.37;99107.00;5046563;28;4222;-72
2022/09/28 04:26:39;;;;;;;;;;;;;;;19.83;51.50;99114.91;5035316;28;4070;-72
2022/09/28 04:29:14;;;;;;;;;;;;;;;19.81;51.41;99109.84;5051688;28;4180;-73
2022/09/28 04:32:01;;;;;;;;;;;;;;;19.82;51.21;99113.44;5038798;28;4261;-73
2022/09/28 04:34:33;;;;;;;;;;;;;;;19.80;51.06;99113.41;5024983;28;5324;-74
2022/09/28 04:37:04;;;;;;;;;;;;;;;19.80;51.20;99117.00;5044136;28;5047;-74
2022/09/28 04:39:31;;;;;;;;;;;;;;;19.80;51.04;99111.25;5031993;28;4222;-74
2022/09/28 04:41:57;;;;;;;;;;;;;;;19.79;51.05;99109.06;5047519;28;4378;-74
2022/09/28 04:44:25;;;;;;;;;;;;;;;19.78;50.78;99114.09;5039424;28;5247;-73
2022/09/28 04:46:57;;;;;;;;;;;;;;;19.78;50.40;99114.09;5035315;28;4225;-72
2022/09/28 04:49:30;;;;;;;;;;;;;;;19.78;50.19;99116.22;5045186;28;4290;-74
2022/09/28 04:52:07;;;;;;;;;;;;;;;19.79;50.08;99109.06;5051868;28;5286;-73
2022/09/28 04:54:34;;;;;;;;;;;;;;;19.77;50.21;99114.75;5046771;28;4111;-72
2022/09/28 04:57:02;;;;;;;;;;;;;;;19.78;50.41;99107.63;5031113;28;4066;-69
2022/09/28 04:59:28;;;;;;;;;;;;;;;19.82;50.74;99107.72;5038258;28;5261;-70
2022/09/28 05:01:54;;;;;;;;;;;;;;;19.81;51.55;99118.47;5041231;28;4242;-61
2022/09/28 05:04:59;;;;;;;;;;;;;;;19.85;52.08;99118.53;5030312;28;4591;-75
2022/09/28 05:07:44;;;;;;;;;;;;;;;19.84;51.57;99125.72;5040482;28;4385;-64
2022/09/28 05:10:11;;;;;;;;;;;;;;;19.88;52.93;99125.03;5053965;28;4200;-72
2022/09/28 05:12:38;;;;;;;;;;;;;;;19.92;52.37;99128.00;5049795;28;5574;-71
2022/09/28 05:15:04;;;;;;;;;;;;;;;19.92;52.16;99128.00;5045100;28;4243;-68
2022/09/28 05:17:31;;;;;;;;;;;;;;;19.90;51.95;99136.59;5049541;28;5467;-69
2022/09/28 05:20:16;;;;;;;;;;;;;;;19.88;51.62;99139.41;5047943;28;4251;-67
2022/09/28 05:22:42;;;;;;;;;;;;;;;19.83;51.15;99137.88;5052336;28;4230;-69
2022/09/28 05:25:08;;;;;;;;;;;;;;;19.78;50.99;99125.56;5045974;28;5297;-72
2022/09/28 05:27:54;;;;;;;;;;;;;;;19.78;51.04;99124.84;5036386;28;4217;-71
2022/09/28 05:30:33;;;;;;;;;;;;;;;19.77;50.79;99117.63;5044174;28;4162;-70
2022/09/28 05:33:35;;;;;;;;;;;;;;;19.78;51.26;99114.09;5026590;28;4221;-69
2022/09/28 05:36:09;;;;;;;;;;;;;;;19.80;51.52;99104.78;5033901;28;4176;-69
2022/09/28 05:38:36;;;;;;;;;;;;;;;19.81;51.40;99106.25;5039415;28;5116;-69
2022/09/28 05:41:02;;;;;;;;;;;;;;;19.85;52.61;99106.31;5033061;28;4246;-70
2022/09/28 05:43:32;;;;;;;;;;;;;;;19.85;51.72;99117.81;5048209;28;4183;-70
2022/09/28 05:45:58;;;;;;;;;;;;;;;19.87;51.99;99114.97;5052905;28;4210;-69
2022/09/28 05:48:26;;;;;;;;;;;;;;;19.86;51.76;99119.28;5044553;28;4230;-66
2022/09/28 05:50:52;;;;;;;;;;;;;;;19.87;51.72;99109.25;5043844;28;4189;-68
2022/09/28 05:53:19;;;;;;;;;;;;;;;19.86;51.88;99104.94;5044539;28;4184;-68
2022/09/28 05:55:45;;;;;;;;;;;;;;;19.85;51.78;99094.84;5049363;28;4216;-68
2022/09/28 05:58:12;;;;;;;;;;;;;;;19.83;51.00;99103.41;5036271;28;5749;-68
2022/09/28 06:00:38;;;;;;;;;;;;;;;19.85;51.08;99106.31;5055145;28;4194;-67
2022/09/28 06:03:06;;;;;;;;;;;;;;;19.84;51.18;99099.13;5052372;28;4698;-68
2022/09/28 06:05:35;;;;;;;;;;;;;;;19.86;51.33;99102.06;5050698;28;4182;-68
2022/09/28 06:08:03;;;;;;;;;;;;;;;19.84;51.51;99087.66;5055061;28;4236;-68
2022/09/28 06:10:30;;;;;;;;;;;;;;;19.28;51.63;99093.59;5036200;28;4325;-64
2022/09/28 06:12:59;;;;;;;;;;;;;;;18.83;51.26;99093.28;5045838;28;4206;-66
2022/09/28 06:15:26;;;;;;;;;;;;;;;18.58;51.09;99086.19;5032075;28;4543;-63
2022/09/28 06:17:57;;;;;;;;;;;;;;;18.48;51.08;99080.19;5055777;28;5394;-60
2022/09/28 06:20:36;;;;;;;;;;;;;;;18.40;50.75;99084.28;5036859;28;5595;-64
2022/09/28 06:23:13;;;;;;;;;;;;;;;18.47;50.50;99085.19;5051775;28;4218;-63
2022/09/28 06:25:40;;;;;;;;;;;;;;;18.62;49.95;99092.75;5057686;28;5586;-63
2022/09/28 06:28:08;;;;;;;;;;;;;;;18.61;49.82;99085.53;5052296;28;4258;-62
2022/09/28 06:30:36;;;;;;;;;;;;;;;18.38;50.32;99084.25;5035636;28;4188;-59
2022/09/28 06:33:06;;;;;;;;;;;;;;;18.38;50.26;99087.09;5040073;28;6119;-63
2022/09/28 06:35:34;;;;;;;;;;;;;;;18.24;50.50;99089.59;5052651;28;4158;-62
2022/09/28 06:38:01;;;;;;;;;;;;;;;18.30;50.39;99086.91;5052578;28;4149;-63
2022/09/28 06:40:28;;;;;;;;;;;;;;;18.06;50.81;99086.25;5053840;28;5360;-63
2022/09/28 06:42:55;;;;;;;;;;;;;;;17.93;51.05;99085.88;5047332;28;4260;-63
2022/09/28 06:45:41;;;;;;;;;;;;;;;17.74;51.67;99081.03;5052155;28;4067;-63
2022/09/28 06:48:32;;;;;;;;;;;;;;;17.62;51.99;99083.56;5053471;28;6439;-65
2022/09/28 06:50:59;;;;;;;;;;;;;;;17.66;51.65;99075.06;5052329;28;4001;-64
2022/09/28 06:53:31;;;;;;;;;;;;;;;17.62;51.76;99075.69;5053205;28;5440;-64
2022/09/28 06:56:09;;;;;;;;;;;;;;;17.49;52.13;99071.72;5054193;28;4144;-64
2022/09/28 06:58:35;;;;;;;;;;;;;;;17.55;51.98;99076.91;5054697;28;4367;-65
2022/09/28 07:01:02;;;;;;;;;;;;;;;17.46;52.09;99070.22;5052208;28;5323;-65
2022/09/28 07:03:39;;;;;;;;;;;;;;;17.45;52.31;99073.75;5051687;28;5259;-64
2022/09/28 07:06:22;;;;;;;;;;;;;;;17.52;52.31;99067.56;5052366;28;4068;-64
2022/09/28 07:09:06;;;;;;;;;;;;;;;17.52;52.37;99076.13;5049176;28;4128;-64
2022/09/28 07:12:08;;;;;;;;;;;;;;;17.37;52.91;99071.38;5050701;28;6534;-64
2022/09/28 07:14:48;;;;;;;;;;;;;;;17.37;52.82;99071.38;5050813;28;5549;-64
2022/09/28 07:17:15;;;;;;;;;;;;;;;17.27;53.13;99071.06;5051217;28;5284;-63
2022/09/28 07:19:43;;;;;;;;;;;;;;;17.37;53.16;99071.38;5055039;28;4036;-63
2022/09/28 07:22:13;;;;;;;;;;;;;;;17.28;53.40;99078.25;5037591;28;4218;-61
2022/09/28 07:24:44;;;;;;;;;;;;;;;17.27;53.46;99076.78;5044294;28;4177;-63
2022/09/28 07:27:30;;;;;;;;;;;;;;;17.86;52.90;99069.94;5049982;28;4637;-71
2022/09/28 07:30:15;;;;;;;;;;;;;;;18.56;51.74;99071.78;5052388;28;4141;-70
2022/09/28 07:32:56;;;;;;;;;;;;;;;18.82;51.15;99081.06;5050642;28;4217;-69
2022/09/28 07:35:49;;;;;;;;;;;;;;;18.99;50.83;99076.47;5050211;28;4231;-69
2022/09/28 07:38:15;;;;;;;;;;;;;;;19.05;50.85;99081.59;5046997;28;4219;-70
2022/09/28 07:43:27;;;;;;;;;;;;;;;19.14;50.90;99080.38;5049629;28;4188;-69
2022/09/28 07:45:53;;;;;;;;;;;;;;;19.19;51.12;99084.78;5050621;28;4258;-73
2022/09/28 07:48:20;;;;;;;;;;;;;;;19.24;51.44;99083.50;5048725;28;4223;-68
2022/09/28 07:51:07;;;;;;;;;;;;;;;19.30;51.68;99085.75;5052343;28;4129;-71
2022/09/28 07:53:38;;;;;;;;;;;;;;;19.34;51.74;99090.88;5064425;28;4204;-71
2022/09/28 07:56:29;;;;;;;;;;;;;;;19.37;51.77;99078.00;5030564;28;4035;-72
2022/09/28 07:59:02;;;;;;;;;;;;;;;19.41;51.71;99083.84;5036239;28;4242;-72
2022/09/28 08:01:37;;;;;;;;;;;;;;;19.44;51.74;99082.47;5045401;28;4215;-71
2022/09/28 08:04:05;;;;;;;;;;;;;;;19.45;52.06;99086.81;5049219;28;4186;-72
2022/09/28 08:06:33;;;;;;;;;;;;;;;19.47;51.86;99086.84;5049867;28;4558;-68
2022/09/28 08:09:00;;;;;;;;;;;;;;;19.48;51.95;99082.56;5048771;28;4225;-68
2022/09/28 08:11:48;;;;;;;;;;;;;;;19.51;52.44;99086.91;5039664;28;4226;-67
2022/09/28 08:14:38;;;;;;;;;;;;;;;19.50;52.55;99084.75;5026285;28;4171;-63
2022/09/28 08:17:25;;;;;;;;;;;;;;;19.16;51.91;99086.16;5049040;28;4167;-68
2022/09/28 08:22:40;;;;;;;;;;;;;;;19.73;54.36;99091.72;5047504;28;5093;-62
2022/09/28 08:25:07;;;;;;;;;;;;;;;19.73;53.63;99092.44;5050491;28;5443;-64
2022/09/28 08:27:33;;;;;;;;;;;;;;;19.69;53.71;99100.25;5051421;28;4028;-62
2022/09/28 08:30:00;;;;;;;;;;;;;;;19.72;53.85;99098.88;5034169;28;4201;-64
2022/09/28 08:32:50;;;;;;;;;;;;;;;19.73;54.03;99094.59;5052413;28;5538;-64
2022/09/28 08:35:34;;;;;;;;;;;;;;;19.76;54.11;99110.44;5043130;28;4326;-65
2022/09/28 08:38:12;;;;;;;;;;;;;;;19.76;54.62;99104.69;5031484;28;4250;-64
2022/09/28 08:41:35;;;;;;;;;;;;;;;19.90;55.35;99107.13;5044063;28;4505;-66
2022/09/28 08:44:22;;;;;;;;;;;;;;;19.92;55.97;99110.78;5045684;28;4063;-67
2022/09/28 08:50:23;;;;;;;;;;;;;;;20.03;55.59;99108.84;5035955;28;4404;-66
2022/09/28 08:53:04;;;;;;;;;;;;;;;19.98;56.12;99096.53;5014039;28;4098;-66
2022/09/28 08:55:48;;;;;;;;;;;;;;;19.99;55.99;99092.25;5026335;28;4191;-63
2022/09/28 08:58:29;;;;;;;;;;;;;;;19.96;56.03;99105.13;5026263;28;5508;-62
2022/09/28 09:00:57;;;;;;;;;;;;;;;19.89;57.17;99100.66;5022132;28;4242;-63
2022/09/28 09:03:27;;;;;;;;;;;;;;;19.86;55.60;99102.78;5035445;28;5161;-61
2022/09/28 09:06:18;;;;;;;;;;;;;;;19.84;55.84;99104.88;4998245;28;5461;-64
2022/09/28 09:09:06;;;;;;;;;;;;;;;19.72;54.97;99098.88;5024820;28;4187;-63
2022/09/28 09:11:33;;;;;;;;;;;;;;;19.67;53.77;99103.78;5008517;28;4262;-65
2022/09/28 09:13:59;;;;;;;;;;;;;;;19.71;53.82;99106.03;5018781;28;4161;-64
2022/09/28 09:16:42;;;;;;;;;;;;;;;19.67;52.99;99107.38;5023557;28;5204;-64
2022/09/28 09:19:53;;;;;;;;;;;;;;;19.54;52.41;99096.31;5032048;28;4229;-66
2022/09/28 09:22:58;;;;;;;;;;;;;;;19.50;52.36;99102.69;5025102;28;5317;-59
2022/09/28 09:25:33;;;;;;;;;;;;;;;19.25;50.11;99105.03;5013491;28;4552;-59
2022/09/28 09:28:10;;;;;;;;;;;;;;;19.02;48.65;99100.91;5010169;28;4223;-60
2022/09/28 09:30:49;;;;;;;;;;;;;;;19.13;48.73;99101.16;5015756;28;4000;-61
2022/09/28 09:33:26;;;;;;;;;;;;;;;19.34;48.65;99102.34;5014241;28;4205;-60
2022/09/28 09:36:33;;;;;;;;;;;;;;;19.46;49.59;99102.59;5022828;28;5685;-60
2022/09/28 09:39:34;;;;;;;;;;;;;;;19.61;50.82;99101.50;5010103;28;4184;-60
2022/09/28 09:42:28;;;;;;;;;;;;;;;19.63;50.52;99104.44;5021363;28;5658;-62
2022/09/28 09:45:34;;;;;;;;;;;;;;;19.60;50.28;99111.53;5022663;28;4151;-60
2022/09/28 09:48:26;;;;;;;;;;;;;;;19.39;49.29;99106.75;5009328;28;4144;-60
2022/09/28 09:50:54;;;;;;;;;;;;;;;19.44;49.35;99116.91;5029484;28;3969;-60
2022/09/28 09:53:20;;;;;;;;;;;;;;;19.52;49.13;99110.63;5027729;28;4356;-60
2022/09/28 09:55:49;;;;;;;;;;;;;;;19.53;49.43;99109.94;5030303;28;4011;-60
2022/09/28 09:58:25;;;;;;;;;;;;;;;19.49;48.94;99109.84;5029940;28;5235;-60
2022/09/28 10:01:06;;;;;;;;;;;;;;;19.47;48.62;99112.69;5003809;28;5386;-60
2022/09/28 10:03:52;;;;;;;;;;;;;;;19.42;48.38;99111.13;5029465;28;4321;-60
2022/09/28 10:06:21;;;;;;;;;;;;;;;19.48;48.31;99108.41;5034096;28;4172;-60
2022/09/28 10:08:48;;;;;;;;;;;;;;;19.48;48.34;99105.53;5030281;28;4971;-60
2022/09/28 10:11:17;;;;;;;;;;;;;;;19.53;48.97;99109.22;5017591;28;4206;-60
2022/09/28 10:13:49;;;;;;;;;;;;;;;19.56;49.33;99104.97;5006906;28;5327;-60
2022/09/28 10:16:36;;;;;;;;;;;;;;;19.56;49.85;99108.59;5026137;28;4222;-61
2022/09/28 10:19:08;;;;;;;;;;;;;;;19.54;49.95;99108.53;5029523;28;4139;-60
2022/09/28 10:22:02;;;;;;;;;;;;;;;19.54;49.63;99102.78;5024109;28;4176;-60
2022/09/28 10:24:30;;;;;;;;;;;;;;;19.51;49.49;99112.75;5027474;28;4191;-60
2022/09/28 10:26:57;;;;;;;;;;;;;;;19.49;50.49;99112.72;5029468;28;6168;-61
2022/09/28 10:29:24;;;;;;;;;;;;;;;19.53;50.50;99112.09;5030984;28;4176;-61
2022/09/28 10:31:51;;;;;;;;;;;;;;;19.55;50.38;99118.59;5031136;28;4286;-60
2022/09/28 10:34:34;;;;;;;;;;;;;;;19.54;49.81;99114.28;5027879;28;4298;-62
2022/09/28 10:37:08;;;;;;;;;;;;;;;19.53;49.73;99109.94;5021507;28;4144;-69
2022/09/28 10:39:52;;;;;;;;;;;;;;;19.64;50.37;99114.47;5006314;28;4201;-73
2022/09/28 10:42:20;;;;;;;;;;;;;;;19.67;50.38;99113.09;5033385;28;4173;-71
2022/09/28 10:44:54;;;;;;;;;;;;;;;19.69;50.36;99111.72;5021275;28;4256;-70
2022/09/28 10:47:31;;;;;;;;;;;;;;;19.70;50.55;99125.41;5025261;28;4184;-72
2022/09/28 10:49:57;;;;;;;;;;;;;;;19.71;51.25;99126.13;5026959;28;4147;-71
2022/09/28 10:52:41;;;;;;;;;;;;;;;19.71;50.90;99114.66;5014371;28;5309;-72
2022/09/28 10:55:19;;;;;;;;;;;;;;;19.73;50.88;99123.31;5028724;28;5373;-72
2022/09/28 10:57:45;;;;;;;;;;;;;;;19.73;51.01;99123.31;5024105;28;4049;-72
2022/09/28 11:00:30;;;;;;;;;;;;;;;19.74;51.18;99125.47;5024773;28;4384;-60
2022/09/28 11:03:21;;;;;;;;;;;;;;;19.79;50.66;99120.56;5028534;28;4236;-60
2022/09/28 11:06:00;;;;;;;;;;;;;;;19.83;50.81;99123.50;5026568;28;4055;-61
2022/09/28 11:08:47;;;;;;;;;;;;;;;19.85;51.10;99127.16;5027224;28;4293;-60
2022/09/28 11:11:18;;;;;;;;;;;;;;;19.88;51.57;99122.19;5023337;28;4145;-61
2022/09/28 11:13:50;;;;;;;;;;;;;;;19.89;51.62;99123.66;5011318;28;4238;-61
2022/09/28 11:16:22;;;;;;;;;;;;;;;19.89;52.01;99123.66;5028289;28;4260;-62
2022/09/28 11:18:49;;;;;;;;;;;;;;;19.91;52.42;99122.97;5046647;28;4338;-61
2022/09/28 11:21:16;;;;;;;;;;;;;;;19.93;52.36;99123.00;5030685;28;4329;-61
2022/09/28 11:24:00;;;;;;;;;;;;;;;19.92;52.65;99130.16;5017763;28;4293;-62
2022/09/28 11:26:33;;;;;;;;;;;;;;;19.95;52.86;99131.66;5021667;28;4148;-61
2022/09/28 11:28:59;;;;;;;;;;;;;;;19.95;52.91;99132.41;5023279;28;4187;-60
2022/09/28 11:31:38;;;;;;;;;;;;;;;19.98;52.96;99124.53;5024381;28;4273;-60
2022/09/28 11:34:20;;;;;;;;;;;;;;;20.10;52.90;99127.66;5021996;28;4018;-62
2022/09/28 11:37:31;;;;;;;;;;;;;;;20.06;52.78;99130.44;5014707;28;6581;-62
2022/09/28 11:40:16;;;;;;;;;;;;;;;20.03;52.96;99131.81;5022861;28;4390;-62
2022/09/28 11:42:43;;;;;;;;;;;;;;;20.04;53.01;99127.53;5022913;28;4026;-62
2022/09/28 11:45:16;;;;;;;;;;;;;;;20.06;53.04;99131.16;5025233;28;4310;-63
2022/09/28 11:47:52;;;;;;;;;;;;;;;20.06;53.29;99125.41;5008755;28;4058;-62
2022/09/28 11:50:37;;;;;;;;;;;;;;;20.08;53.40;99133.34;5023816;28;4191;-62
2022/09/28 11:53:22;;;;;;;;;;;;;;;20.07;53.45;99129.75;5019890;28;4067;-62
2022/09/28 11:55:55;;;;;;;;;;;;;;;20.05;53.58;99134.75;5021498;28;4163;-62
2022/09/28 11:58:29;;;;;;;;;;;;;;;20.07;53.68;99134.78;5044321;28;3988;-62
2022/09/28 12:01:03;;;;;;;;;;;;;;;20.06;53.52;99134.03;5035823;28;4228;-62
2022/09/28 12:03:49;;;;;;;;;;;;;;;20.11;53.65;99131.25;5020564;28;5179;-62
2022/09/28 12:06:22;;;;;;;;;;;;;;;20.12;53.65;99132.72;5009568;28;4332;-62
2022/09/28 12:08:52;;;;;;;;;;;;;;;20.12;53.70;99144.94;5022122;28;5237;-61
2022/09/28 12:11:42;;;;;;;;;;;;;;;20.13;53.56;99145.66;5031959;28;5017;-61
2022/09/28 12:14:19;;;;;;;;;;;;;;;20.14;53.68;99135.63;5030733;28;5252;-62
2022/09/28 12:16:50;;;;;;;;;;;;;;;20.16;53.70;99138.53;5034981;28;4571;-61
2022/09/28 12:19:33;;;;;;;;;;;;;;;20.17;53.67;99128.50;5037394;28;5473;-61
2022/09/28 12:22:02;;;;;;;;;;;;;;;20.22;53.61;99141.53;5034389;28;5337;-62
2022/09/28 12:24:48;;;;;;;;;;;;;;;20.19;53.64;99132.16;5031050;28;4141;-62
2022/09/28 12:27:26;;;;;;;;;;;;;;;20.23;54.00;99131.50;5029664;28;4009;-62
2022/09/28 12:30:11;;;;;;;;;;;;;;;20.23;53.69;99131.50;5031488;28;4360;-62
2022/09/28 12:32:40;;;;;;;;;;;;;;;20.23;53.98;99125.75;5032797;28;4026;-62
2022/09/28 12:35:14;;;;;;;;;;;;;;;20.22;53.71;99130.03;5028668;28;4060;-62
2022/09/28 12:38:00;;;;;;;;;;;;;;;20.22;53.87;99130.03;5017284;28;4272;-62
2022/09/28 12:40:36;;;;;;;;;;;;;;;20.25;53.80;99129.41;5012193;28;5260;-61
2022/09/28 12:43:22;;;;;;;;;;;;;;;20.26;54.08;99130.13;5051024;28;4166;-62
2022/09/28 12:45:53;;;;;;;;;;;;;;;20.25;54.14;99125.81;5028016;28;3938;-62
2022/09/28 12:48:43;;;;;;;;;;;;;;;20.28;54.01;99127.28;5031459;28;4826;-62
2022/09/28 12:51:41;;;;;;;;;;;;;;;20.27;54.21;99125.81;5032172;28;4389;-62
2022/09/28 12:54:16;;;;;;;;;;;;;;;20.29;54.19;99122.97;5029819;28;4312;-61
2022/09/28 12:56:51;;;;;;;;;;;;;;;20.31;54.36;99125.91;5021327;28;4067;-74
2022/09/28 12:59:28;;;;;;;;;;;;;;;20.31;54.33;99125.91;5022336;28;5383;-73
2022/09/28 13:02:00;;;;;;;;;;;;;;;20.30;54.03;99127.31;5025323;28;5349;-75
2022/09/28 13:04:35;;;;;;;;;;;;;;;20.31;54.31;99128.78;5027773;28;5653;-72
2022/09/28 13:07:05;;;;;;;;;;;;;;;20.30;54.35;99125.19;5028585;28;4227;-75
2022/09/28 13:09:45;;;;;;;;;;;;;;;20.30;54.03;99125.19;5031370;28;4133;-73
2022/09/28 13:12:23;;;;;;;;;;;;;;;20.31;53.96;99120.16;5006244;28;5289;-74
2022/09/28 13:15:03;;;;;;;;;;;;;;;20.32;54.27;99133.13;5020946;28;4397;-78
2022/09/28 13:17:32;;;;;;;;;;;;;;;20.32;53.99;99126.63;5025000;28;4088;-76
2022/09/28 13:20:17;;;;;;;;;;;;;;;20.32;54.20;99130.25;5030244;28;4278;-76
2022/09/28 13:22:48;;;;;;;;;;;;;;;20.32;54.06;99121.63;5027611;28;4134;-74
2022/09/28 13:25:17;;;;;;;;;;;;;;;20.33;54.38;99128.81;5023184;28;4119;-77
2022/09/28 13:27:45;;;;;;;;;;;;;;;20.34;54.32;99127.41;5024084;28;4206;-76
2022/09/28 13:30:12;;;;;;;;;;;;;;;20.33;54.12;99130.97;5027307;28;4146;-74
2022/09/28 13:32:38;;;;;;;;;;;;;;;20.34;54.27;99133.16;5026833;28;4197;-74
2022/09/28 13:35:05;;;;;;;;;;;;;;;20.34;54.21;99130.28;5027543;28;4574;-74
2022/09/28 13:37:32;;;;;;;;;;;;;;;20.36;54.19;99129.56;5021803;28;4165;-75
2022/09/28 13:40:04;;;;;;;;;;;;;;;20.37;54.14;99140.41;5028578;28;5516;-75
2022/09/28 13:42:46;;;;;;;;;;;;;;;20.36;54.17;99141.06;5025553;28;5220;-75
2022/09/28 13:45:21;;;;;;;;;;;;;;;20.37;54.29;99131.78;5024903;28;4144;-75